createdAt,value
2018-06-08T00:01:29.687Z,94822.96
2018-06-08T00:04:33.970Z,94820.84
2018-06-08T00:07:39.498Z,94822.64
2018-06-08T00:10:43.777Z,94815.12
2018-06-08T00:13:48.185Z,94806.66
2018-06-08T00:16:52.523Z,94802.38
2018-06-08T00:19:56.804Z,94800.88
2018-06-08T00:23:01.293Z,94802.37
2018-06-08T00:26:05.665Z,94800.98
2018-06-08T00:29:09.972Z,94797.27
2018-06-08T00:32:14.377Z,94798.47
2018-06-08T00:35:18.678Z,94793.66
2018-06-08T00:38:23.051Z,94803.61
2018-06-08T00:41:27.415Z,94797.86
2018-06-08T00:44:32.730Z,94792.27
2018-06-08T00:47:37.052Z,94792.73
2018-06-08T00:50:41.534Z,94788.83
2018-06-08T00:53:45.821Z,94782.70
2018-06-08T00:57:04.635Z,94769.80
2018-06-08T01:00:08.935Z,94764.31
2018-06-08T01:03:13.253Z,94761.76
2018-06-08T01:06:17.552Z,94761.16
2018-06-08T01:09:21.879Z,94758.41
2018-06-08T01:12:26.534Z,94754.17
2018-06-08T01:15:30.908Z,94757.26
2018-06-08T01:18:35.200Z,94752.60
2018-06-08T01:21:39.750Z,94750.98
2018-06-08T01:24:44.253Z,94743.67
2018-06-08T01:27:48.540Z,94736.75
2018-06-08T01:30:52.819Z,94737.67
2018-06-08T01:33:58.241Z,94740.69
2018-06-08T01:37:02.533Z,94739.15
2018-06-08T01:40:06.916Z,94736.11
2018-06-08T01:43:11.348Z,94734.72
2018-06-08T01:46:15.644Z,94738.73
2018-06-08T01:49:19.930Z,94731.06
2018-06-08T01:52:25.510Z,94734.64
2018-06-08T01:55:29.822Z,94735.98
2018-06-08T01:58:34.126Z,94745.30
2018-06-08T02:01:38.401Z,94749.16
2018-06-08T02:04:42.655Z,94743.77
2018-06-08T02:07:46.939Z,94746.03
2018-06-08T02:10:51.225Z,94746.55
2018-06-08T02:13:55.493Z,94743.22
2018-06-08T02:16:59.825Z,94734.52
2018-06-08T02:20:04.125Z,94742.75
2018-06-08T02:23:08.388Z,94742.98
2018-06-08T02:26:12.658Z,94742.98
2018-06-08T02:29:16.923Z,94744.27
2018-06-08T02:32:21.208Z,94753.63
2018-06-08T02:35:25.460Z,94755.33
2018-06-08T02:38:29.729Z,94761.71
2018-06-08T02:41:34.009Z,94764.00
2018-06-08T02:44:38.274Z,94757.87
2018-06-08T02:47:42.531Z,94763.94
2018-06-08T02:50:46.792Z,94765.42
2018-06-08T02:53:51.094Z,94759.36
2018-06-08T02:56:55.350Z,94759.05
2018-06-08T02:59:59.628Z,94763.48
2018-06-08T03:03:04.029Z,94755.11
2018-06-08T03:06:08.353Z,94754.72
2018-06-08T03:09:12.781Z,94758.48
2018-06-08T03:12:17.041Z,94766.30
2018-06-08T03:15:21.317Z,94772.52
2018-06-08T03:18:25.584Z,94767.64
2018-06-08T03:21:30.149Z,94763.06
2018-06-08T03:24:34.442Z,94760.92
2018-06-08T03:27:38.861Z,94753.40
2018-06-08T03:30:43.129Z,94755.36
2018-06-08T03:33:47.636Z,94768.62
2018-06-08T03:36:51.937Z,94775.41
2018-06-08T03:39:56.279Z,94771.20
2018-06-08T03:43:00.304Z,94765.23
2018-06-08T03:46:04.583Z,94757.51
2018-06-08T03:49:08.837Z,94759.02
2018-06-08T03:52:13.135Z,94754.72
2018-06-08T03:55:17.424Z,94744.45
2018-06-08T03:58:21.677Z,94752.73
2018-06-08T04:01:26.168Z,94755.62
2018-06-08T04:04:30.423Z,94753.24
2018-06-08T04:07:34.743Z,94742.43
2018-06-08T04:10:39.025Z,94737.97
2018-06-08T04:13:43.269Z,94731.67
2018-06-08T04:16:47.771Z,94730.75
2018-06-08T04:19:52.171Z,94723.31
2018-06-08T04:22:56.438Z,94728.06
2018-06-08T04:26:03.577Z,94720.88
2018-06-08T04:29:10.180Z,94721.79
2018-06-08T04:32:14.473Z,94730.78
2018-06-08T04:35:18.880Z,94741.62
2018-06-08T04:38:23.289Z,94749.46
2018-06-08T04:41:28.031Z,94752.97
2018-06-08T04:44:32.613Z,94747.59
2018-06-08T04:47:37.113Z,94746.80
2018-06-08T04:50:41.896Z,94760.53
2018-06-08T04:53:46.223Z,94772.31
2018-06-08T04:56:53.180Z,94778.58
2018-06-08T04:59:57.424Z,94781.94
2018-06-08T05:03:01.681Z,94785.80
2018-06-08T05:06:06.847Z,94790.68
2018-06-08T05:09:11.389Z,94794.22
2018-06-08T05:12:15.744Z,94786.44
2018-06-08T05:15:20.225Z,94774.36
2018-06-08T05:18:24.988Z,94777.23
2018-06-08T05:21:29.418Z,94779.21
2018-06-08T05:24:35.450Z,94787.22
2018-06-08T05:27:40.894Z,94794.63
2018-06-08T05:30:45.742Z,94801.92
2018-06-08T05:33:50.608Z,94803.02
2018-06-08T05:36:55.853Z,94799.64
2018-06-08T05:40:00.257Z,94801.02
2018-06-08T05:43:04.679Z,94804.51
2018-06-08T05:46:08.957Z,94807.22
2018-06-08T05:49:13.220Z,94807.12
2018-06-08T05:52:18.026Z,94810.03
2018-06-08T05:55:22.353Z,94805.50
2018-06-08T05:58:26.615Z,94803.92
2018-06-08T06:01:31.638Z,94809.20
2018-06-08T06:04:36.393Z,94813.26
2018-06-08T06:07:40.658Z,94816.34
2018-06-08T06:10:44.976Z,94809.00
2018-06-08T06:13:49.216Z,94813.33
2018-06-08T06:16:53.468Z,94813.62
2018-06-08T06:19:57.698Z,94805.95
2018-06-08T06:23:01.966Z,94806.22
2018-06-08T06:26:06.434Z,94810.48
2018-06-08T06:29:10.760Z,94806.16
2018-06-08T06:32:15.227Z,94803.45
2018-06-08T06:35:19.547Z,94801.67
2018-06-08T06:38:23.809Z,94795.13
2018-06-08T06:41:28.053Z,94791.91
2018-06-08T06:44:32.382Z,94786.83
2018-06-08T06:47:36.503Z,94785.34
2018-06-08T06:50:40.760Z,94782.14
2018-06-08T06:53:45.216Z,94782.38
2018-06-08T06:56:49.553Z,94776.91
2018-06-08T06:59:53.816Z,94781.63
2018-06-08T07:02:58.073Z,94788.47
2018-06-08T07:06:02.351Z,94787.91
2018-06-08T07:09:09.568Z,94790.27
2018-06-08T07:12:14.309Z,94780.28
2018-06-08T07:15:18.593Z,94775.45
2018-06-08T07:18:23.430Z,94776.36
2018-06-08T07:21:27.692Z,94782.28
2018-06-08T07:24:32.517Z,94773.86
2018-06-08T07:27:36.765Z,94770.54
2018-06-08T07:30:41.040Z,94776.98
2018-06-08T07:33:45.392Z,94779.91
2018-06-08T07:36:49.643Z,94769.80
2018-06-08T07:39:53.976Z,94760.73
2018-06-08T07:42:58.267Z,94755.84
2018-06-08T07:46:02.628Z,94753.83
2018-06-08T07:49:06.957Z,94759.16
2018-06-08T07:52:11.306Z,94750.70
2018-06-08T07:55:15.694Z,94752.22
2018-06-08T07:58:19.964Z,94760.50
2018-06-08T08:01:24.228Z,94761.12
2018-06-08T08:04:28.524Z,94741.64
2018-06-08T08:07:32.917Z,94747.39
2018-06-08T08:10:37.182Z,94750.34
2018-06-08T08:13:41.895Z,94741.20
2018-06-08T08:16:46.172Z,94732.98
2018-06-08T08:19:50.442Z,94729.70
2018-06-08T08:22:54.864Z,94727.56
2018-06-08T08:25:59.153Z,94729.33
2018-06-08T08:29:03.450Z,94738.20
2018-06-08T08:32:08.102Z,94735.04
2018-06-08T08:35:12.599Z,94745.31
2018-06-08T08:38:16.872Z,94751.40
2018-06-08T08:41:21.304Z,94752.47
2018-06-08T08:44:25.574Z,94756.05
2018-06-08T08:47:29.829Z,94760.71
2018-06-08T08:50:34.238Z,94751.14
2018-06-08T08:53:38.534Z,94748.55
2018-06-08T08:56:42.886Z,94750.41
2018-06-08T08:59:47.492Z,94746.94
2018-06-08T09:02:51.981Z,94753.75
2018-06-08T09:05:56.422Z,94749.17
2018-06-08T09:09:00.776Z,94739.95
2018-06-08T09:12:05.297Z,94744.24
2018-06-08T09:15:09.773Z,94732.41
2018-06-08T09:18:13.968Z,94725.75
2018-06-08T09:21:18.311Z,94730.62
2018-06-08T09:24:22.634Z,94727.59
2018-06-08T09:27:27.002Z,94724.97
2018-06-08T09:30:31.208Z,94722.57
2018-06-08T09:33:35.736Z,94726.73
2018-06-08T09:36:40.014Z,94714.16
2018-06-08T09:39:44.624Z,94716.39
2018-06-08T09:42:49.289Z,94711.83
2018-06-08T09:45:53.578Z,94701.11
2018-06-08T09:48:58.720Z,94693.93
2018-06-08T09:52:02.980Z,94691.23
2018-06-08T09:55:07.721Z,94685.52
2018-06-08T09:58:12.013Z,94686.09
2018-06-08T10:01:16.293Z,94677.12
2018-06-08T10:04:20.605Z,94678.28
2018-06-08T10:07:24.885Z,94672.26
2018-06-08T10:10:29.596Z,94668.80
2018-06-08T10:13:33.979Z,94668.97
2018-06-08T10:16:38.419Z,94672.94
2018-06-08T10:19:42.933Z,94673.16
2018-06-08T10:22:47.165Z,94669.36
2018-06-08T10:25:51.515Z,94667.77
2018-06-08T10:28:55.840Z,94665.92
2018-06-08T10:31:59.894Z,94667.95
2018-06-08T10:35:04.274Z,94670.70
2018-06-08T10:38:08.529Z,94666.07
2018-06-08T10:41:12.810Z,94670.72
2018-06-08T10:44:17.054Z,94666.76
2018-06-08T10:47:21.479Z,94663.63
2018-06-08T10:50:26.596Z,94651.45
2018-06-08T10:53:32.150Z,94648.36
2018-06-08T10:56:36.604Z,94642.36
2018-06-08T10:59:41.950Z,94645.19
2018-06-08T11:02:46.371Z,94645.61
2018-06-08T11:05:50.655Z,94641.75
2018-06-08T11:08:54.982Z,94642.25
2018-06-08T11:11:59.494Z,94641.16
2018-06-08T11:15:03.865Z,94644.96
2018-06-08T11:18:08.535Z,94638.36
2018-06-08T11:21:12.872Z,94636.19
2018-06-08T11:24:17.128Z,94633.90
2018-06-08T11:27:21.637Z,94628.52
2018-06-08T11:30:25.943Z,94620.67
2018-06-08T11:33:30.412Z,94612.72
2018-06-08T11:36:34.978Z,94618.00
2018-06-08T11:39:39.216Z,94615.98
2018-06-08T11:42:43.552Z,94614.23
2018-06-08T11:45:48.228Z,94604.16
2018-06-08T11:48:52.733Z,94604.02
2018-06-08T11:51:57.745Z,94601.98
2018-06-08T11:55:02.035Z,94598.60
2018-06-08T11:58:06.297Z,94579.09
2018-06-08T12:01:10.888Z,94585.40
2018-06-08T12:04:15.157Z,94577.09
2018-06-08T12:07:19.421Z,94572.50
2018-06-08T12:10:23.661Z,94572.06
2018-06-08T12:13:28.077Z,94566.79
2018-06-08T12:16:32.422Z,94554.38
2018-06-08T12:19:36.668Z,94551.56
2018-06-08T12:22:41.295Z,94546.66
2018-06-08T12:25:45.644Z,94547.86
2018-06-08T12:28:49.893Z,94538.28
2018-06-08T12:31:54.156Z,94533.55
2018-06-08T12:34:58.436Z,94534.17
2018-06-08T12:38:02.725Z,94532.94
2018-06-08T12:41:06.972Z,94530.59
2018-06-08T12:44:11.387Z,94527.08
2018-06-08T12:47:16.298Z,94524.06
2018-06-08T12:50:20.600Z,94519.43
2018-06-08T12:53:24.849Z,94521.98
2018-06-08T12:56:29.158Z,94514.55
2018-06-08T12:59:33.414Z,94501.70
2018-06-08T13:02:37.667Z,94500.06
2018-06-08T13:05:41.973Z,94493.34
2018-06-08T13:08:46.349Z,94490.56
2018-06-08T13:11:50.338Z,94480.06
2018-06-08T13:14:54.685Z,94476.98
2018-06-08T13:17:58.988Z,94482.11
2018-06-08T13:21:03.257Z,94479.47
2018-06-08T13:24:07.543Z,94474.67
2018-06-08T13:27:11.781Z,94478.58
2018-06-08T13:30:16.090Z,94475.30
2018-06-08T13:33:20.510Z,94470.31
2018-06-08T13:36:26.453Z,94478.09
2018-06-08T13:39:30.837Z,94470.53
2018-06-08T13:42:35.062Z,94482.09
2018-06-08T13:45:39.447Z,94484.05
2018-06-08T13:48:43.921Z,94479.83
2018-06-08T13:51:48.340Z,94483.59
2018-06-08T13:54:56.756Z,94482.23
2018-06-08T13:58:01.517Z,94475.54
2018-06-08T14:01:05.898Z,94474.08
2018-06-08T14:04:11.192Z,94470.08
2018-06-08T14:07:15.406Z,94462.42
2018-06-08T14:10:19.801Z,94470.42
2018-06-08T14:13:24.114Z,94471.06
2018-06-08T14:16:28.610Z,94468.91
2018-06-08T14:19:32.953Z,94465.40
2018-06-08T14:22:37.324Z,94460.20
2018-06-08T14:25:41.908Z,94464.44
2018-06-08T14:28:47.036Z,94460.11
2018-06-08T14:31:51.439Z,94450.94
2018-06-08T14:34:56.657Z,94458.58
2018-06-08T14:38:01.282Z,94470.42
2018-06-08T14:41:05.793Z,94479.02
2018-06-08T14:44:10.197Z,94482.75
2018-06-08T14:47:14.572Z,94478.34
2018-06-08T14:50:18.767Z,94481.36
2018-06-08T14:53:23.416Z,94475.77
2018-06-08T14:56:28.060Z,94474.63
2018-06-08T14:59:32.564Z,94480.97
2018-06-08T15:02:37.594Z,94496.41
2018-06-08T15:05:48.672Z,94490.86
2018-06-08T15:08:53.018Z,94485.67
2018-06-08T15:11:57.351Z,94505.98
2018-06-08T15:15:01.672Z,94510.55
2018-06-08T15:18:05.920Z,94495.34
2018-06-08T15:21:10.424Z,94491.31
2018-06-08T15:24:14.672Z,94484.22
2018-06-08T15:27:19.810Z,94504.69
2018-06-08T15:30:24.265Z,94501.69
2018-06-08T15:33:28.647Z,94494.70
2018-06-08T15:36:32.963Z,94470.45
2018-06-08T15:39:37.292Z,94455.05
2018-06-08T15:42:41.641Z,94451.08
2018-06-08T15:45:45.893Z,94450.94
2018-06-08T15:48:50.237Z,94446.55
2018-06-08T15:51:54.615Z,94435.48
2018-06-08T15:55:12.987Z,94426.12
2018-06-08T15:58:17.505Z,94420.47
2018-06-08T16:01:22.118Z,94416.67
2018-06-08T16:04:27.155Z,94407.48
2018-06-08T16:07:32.514Z,94405.11
2018-06-08T16:10:37.430Z,94390.99
2018-06-08T16:13:42.249Z,94385.17
2018-06-08T16:16:49.534Z,94373.47
2018-06-08T16:19:54.938Z,94363.78
2018-06-08T16:22:59.475Z,94364.84
2018-06-08T16:26:03.968Z,94370.75
2018-06-08T16:29:09.117Z,94370.22
2018-06-08T16:32:13.800Z,94369.61
2018-06-08T16:35:18.319Z,94371.76
2018-06-08T16:38:23.059Z,94374.97
2018-06-08T16:41:28.182Z,94385.47
2018-06-08T16:44:32.566Z,94388.64
2018-06-08T16:47:36.991Z,94402.41
2018-06-08T16:50:41.403Z,94420.79
2018-06-08T16:53:46.012Z,94425.33
2018-06-08T16:56:50.484Z,94422.61
2018-06-08T16:59:54.846Z,94419.96
2018-06-08T17:02:59.537Z,94425.70
2018-06-08T17:06:03.898Z,94425.16
2018-06-08T17:09:08.451Z,94449.97
2018-06-08T17:12:12.806Z,94453.55
2018-06-08T17:15:17.662Z,94466.38
2018-06-08T17:18:24.238Z,94473.33
2018-06-08T17:21:28.653Z,94458.17
2018-06-08T17:24:32.961Z,94452.58
2018-06-08T17:27:37.395Z,94453.83
2018-06-08T17:30:41.700Z,94455.33
2018-06-08T17:33:46.220Z,94460.25
2018-06-08T17:36:50.614Z,94459.70
2018-06-08T17:39:54.941Z,94456.77
2018-06-08T17:42:59.374Z,94465.70
2018-06-08T17:46:03.765Z,94461.18
2018-06-08T17:49:08.077Z,94471.42
2018-06-08T17:52:13.029Z,94480.27
2018-06-08T17:55:17.424Z,94482.75
2018-06-08T17:58:21.782Z,94486.83
2018-06-08T18:01:26.358Z,94482.73
2018-06-08T18:04:30.704Z,94493.28
2018-06-08T18:07:34.997Z,94502.84
2018-06-08T18:10:39.736Z,94505.98
2018-06-08T18:13:44.112Z,94509.48
2018-06-08T18:16:48.513Z,94509.50
2018-06-08T18:19:52.917Z,94507.66
2018-06-08T18:22:57.404Z,94505.06
2018-06-08T18:26:01.742Z,94501.27
2018-06-08T18:29:06.156Z,94505.59
2018-06-08T18:32:10.521Z,94502.55
2018-06-08T18:35:14.926Z,94503.40
2018-06-08T18:38:19.293Z,94502.98
2018-06-08T18:41:23.591Z,94503.55
2018-06-08T18:44:27.886Z,94497.80
2018-06-08T18:47:33.039Z,94499.31
2018-06-08T18:50:37.344Z,94501.48
2018-06-08T18:53:41.689Z,94507.28
2018-06-08T18:56:46.251Z,94512.48
2018-06-08T18:59:55.464Z,94515.44
2018-06-08T19:02:59.977Z,94527.73
2018-06-08T19:06:04.336Z,94541.08
2018-06-08T19:09:09.836Z,94539.73
2018-06-08T19:12:14.474Z,94535.46
2018-06-08T19:15:19.036Z,94537.78
2018-06-08T19:18:23.445Z,94537.64
2018-06-08T19:21:27.849Z,94540.77
2018-06-08T19:24:32.444Z,94541.80
2018-06-08T19:27:36.737Z,94538.61
2018-06-08T19:30:41.181Z,94533.84
2018-06-08T19:33:45.501Z,94536.72
2018-06-08T19:36:49.916Z,94545.41
2018-06-08T19:39:54.334Z,94553.09
2018-06-08T19:42:58.975Z,94562.30
2018-06-08T19:46:03.550Z,94561.76
2018-06-08T19:49:08.034Z,94562.21
2018-06-08T19:52:12.336Z,94572.77
2018-06-08T19:55:16.701Z,94570.06
2018-06-08T19:58:21.083Z,94563.55
2018-06-08T20:01:25.844Z,94571.43
2018-06-08T20:04:30.331Z,94576.61
2018-06-08T20:07:34.655Z,94574.30
2018-06-08T20:10:40.021Z,94561.42
2018-06-08T20:13:44.289Z,94552.02
2018-06-08T20:16:48.693Z,94548.77
2018-06-08T20:19:52.968Z,94553.02
2018-06-08T20:22:57.316Z,94558.40
2018-06-08T20:26:01.725Z,94564.16
2018-06-08T20:29:06.766Z,94563.02
2018-06-08T20:32:11.107Z,94556.30
2018-06-08T20:35:15.425Z,94559.75
2018-06-08T20:38:19.795Z,94556.51
2018-06-08T20:41:24.157Z,94555.91
2018-06-08T20:44:28.508Z,94555.13
2018-06-08T20:47:33.089Z,94551.69
2018-06-08T20:50:37.637Z,94548.95
2018-06-08T20:53:41.977Z,94557.20
2018-06-08T20:56:51.150Z,94554.31
2018-06-08T20:59:55.550Z,94561.78
2018-06-08T21:02:59.956Z,94562.95
2018-06-08T21:06:04.280Z,94568.67
2018-06-08T21:09:08.644Z,94562.72
2018-06-08T21:12:13.013Z,94569.61
2018-06-08T21:15:17.021Z,94573.41
2018-06-08T21:18:21.777Z,94578.78
2018-06-08T21:21:26.269Z,94584.55
2018-06-08T21:24:31.550Z,94594.73
2018-06-08T21:27:35.864Z,94594.90
2018-06-08T21:30:40.280Z,94605.37
2018-06-08T21:33:44.937Z,94611.86
2018-06-08T21:36:49.277Z,94618.13
2018-06-08T21:39:53.950Z,94615.25
2018-06-08T21:42:58.224Z,94613.53
2018-06-08T21:46:02.646Z,94615.59
2018-06-08T21:49:06.899Z,94626.95
2018-06-08T21:52:11.153Z,94629.02
2018-06-08T21:55:15.434Z,94627.28
2018-06-08T21:58:19.804Z,94624.36
2018-06-08T22:01:24.209Z,94622.29
2018-06-08T22:04:28.496Z,94610.83
2018-06-08T22:07:33.003Z,94603.34
2018-06-08T22:10:37.323Z,94597.59
2018-06-08T22:13:41.692Z,94598.36
2018-06-08T22:16:46.030Z,94605.80
2018-06-08T22:19:50.294Z,94595.07
2018-06-08T22:22:54.660Z,94587.97
2018-06-08T22:25:58.949Z,94589.11
2018-06-08T22:29:03.798Z,94582.98
2018-06-08T22:32:08.049Z,94585.45
2018-06-08T22:35:13.331Z,94583.14
2018-06-08T22:38:17.638Z,94577.58
2018-06-08T22:41:21.928Z,94580.93
2018-06-08T22:44:26.481Z,94583.44
2018-06-08T22:47:30.786Z,94581.73
2018-06-08T22:50:35.089Z,94578.65
2018-06-08T22:53:39.454Z,94583.81
2018-06-08T22:56:43.924Z,94589.94
2018-06-08T22:59:48.274Z,94592.98
2018-06-08T23:02:52.722Z,94597.93
2018-06-08T23:05:56.985Z,94598.13
2018-06-08T23:09:01.235Z,94598.09
2018-06-08T23:12:05.573Z,94598.83
2018-06-08T23:15:09.892Z,94602.08
2018-06-08T23:18:14.224Z,94614.13
2018-06-08T23:21:18.519Z,94611.66
2018-06-08T23:24:22.925Z,94603.05
2018-06-08T23:27:27.188Z,94602.48
2018-06-08T23:30:31.481Z,94601.09
2018-06-08T23:33:35.807Z,94605.72
2018-06-08T23:36:40.184Z,94605.88
2018-06-08T23:39:44.650Z,94618.55
2018-06-08T23:42:49.163Z,94624.28
2018-06-08T23:45:53.421Z,94628.05
2018-06-08T23:48:57.695Z,94617.12
2018-06-08T23:52:02.032Z,94606.96
2018-06-08T23:55:06.408Z,94604.09
2018-06-08T23:58:10.748Z,94613.88
